Time;durP1;ratioP1;P1;durP2;ratioP2;P2;SDS_P1;SDS_P2;PMS_P1;PMS_P2;Temp;Humidity;BMP_temperature;BMP_pressure;BME280_temperature;BME280_humidity;BME280_pressure;Samples;Min_cycle;Max_cycle;Signal;HPM_P1;HPM_P2
2024/03/03 00:02:33;;;;;;;95.47;47.73;;;;;;;9.72;100.00;100135.08;4952917;58;1142618;-74
2024/03/03 00:07:38;;;;;;;98.52;48.35;;;;;;;9.66;100.00;100131.59;4992006;57;1142806;-72
2024/03/03 00:12:44;;;;;;;106.80;50.20;;;;;;;9.60;100.00;100126.83;4960977;58;1143290;-73
2024/03/03 00:17:49;;;;;;;93.52;49.58;;;;;;;9.57;100.00;100120.46;4865172;59;1144874;-74
2024/03/03 00:22:55;;;;;;;94.37;49.57;;;;;;;9.53;100.00;100126.94;4963248;58;1142724;-72
2024/03/03 00:28:01;;;;;;;98.13;47.90;;;;;;;9.48;100.00;100125.97;4864708;59;1142853;-73
2024/03/03 00:33:06;;;;;;;98.27;51.57;;;;;;;9.41;100.00;100122.64;4927544;58;1142847;-72
2024/03/03 00:38:12;;;;;;;95.87;48.20;;;;;;;9.34;100.00;100117.47;4918085;58;1142806;-73
2024/03/03 00:43:17;;;;;;;94.50;48.27;;;;;;;9.24;100.00;100113.41;4926075;58;1142902;-73
2024/03/03 00:48:23;;;;;;;106.40;53.13;;;;;;;9.15;100.00;100109.70;4943720;58;1142891;-72
2024/03/03 00:53:28;;;;;;;92.73;49.83;;;;;;;9.07;100.00;100105.97;4943750;58;1144879;-72
2024/03/03 00:58:35;;;;;;;97.02;50.88;;;;;;;9.01;100.00;100101.99;4923105;57;1142573;-73
2024/03/03 01:03:41;;;;;;;98.35;49.40;;;;;;;8.94;100.00;100099.97;4939088;57;1143117;-73
2024/03/03 01:08:47;;;;;;;97.37;51.18;;;;;;;8.95;100.00;100100.33;4884045;58;1142862;-74
2024/03/03 01:13:53;;;;;;;109.83;52.17;;;;;;;8.92;100.00;100092.65;4994386;57;1142903;-73
2024/03/03 01:18:58;;;;;;;104.53;49.77;;;;;;;8.85;100.00;100087.51;4967282;57;1144995;-73
2024/03/03 01:24:04;;;;;;;90.90;48.77;;;;;;;8.78;100.00;100092.40;4934535;57;1144591;-74
2024/03/03 01:29:09;;;;;;;96.80;50.57;;;;;;;8.76;100.00;100089.03;5026077;57;1142780;-72
2024/03/03 01:34:15;;;;;;;95.70;49.57;;;;;;;8.71;100.00;100085.91;5014473;57;1142578;-72
2024/03/03 01:39:20;;;;;;;103.07;51.23;;;;;;;8.65;100.00;100084.59;5014705;57;1142891;-72
2024/03/03 01:44:26;;;;;;;98.40;50.03;;;;;;;8.60;100.00;100081.46;5034207;57;1144838;-73
2024/03/03 01:49:33;;;;;;;88.53;46.83;;;;;;;8.53;100.00;100080.27;5014852;57;1142803;-74
2024/03/03 01:54:39;;;;;;;89.57;47.97;;;;;;;8.46;100.00;100077.72;4967998;57;1142727;-73
2024/03/03 01:59:45;;;;;;;97.97;52.43;;;;;;;8.40;100.00;100072.42;4915394;57;1143198;-73
2024/03/03 02:04:51;;;;;;;90.07;46.27;;;;;;;8.35;100.00;100064.05;4963065;57;1142961;-72
2024/03/03 02:09:57;;;;;;;86.83;44.67;;;;;;;8.26;100.00;100060.73;4943967;57;1143094;-72
2024/03/03 02:15:04;;;;;;;87.23;49.30;;;;;;;8.22;100.00;100050.57;4990950;57;1142936;-73
2024/03/03 02:20:11;;;;;;;79.03;46.63;;;;;;;8.17;100.00;100043.48;5042277;57;1142826;-73
2024/03/03 02:25:17;;;;;;;87.67;46.07;;;;;;;8.19;100.00;100041.58;5021790;57;1142741;-73
2024/03/03 02:30:23;;;;;;;95.72;48.83;;;;;;;8.17;100.00;100037.73;5022581;57;1142807;-73
2024/03/03 02:35:29;;;;;;;80.73;45.90;;;;;;;8.15;100.00;100038.33;5040527;57;1259225;-73
2024/03/03 02:40:34;;;;;;;87.17;46.03;;;;;;;8.12;100.00;100031.48;5022702;57;1142904;-72
2024/03/03 02:45:40;;;;;;;83.40;44.98;;;;;;;8.09;100.00;100023.00;5022461;57;1142740;-72
2024/03/03 02:50:45;;;;;;;92.67;46.02;;;;;;;8.00;100.00;100019.25;4976292;57;1142850;-73
2024/03/03 02:55:51;;;;;;;83.37;45.67;;;;;;;7.91;100.00;100025.21;5037966;57;1142803;-73
2024/03/03 03:00:56;;;;;;;82.50;44.33;;;;;;;7.88;100.00;100029.86;5005727;57;1142800;-73
2024/03/03 03:06:03;;;;;;;80.97;45.10;;;;;;;7.82;100.00;100031.14;4942056;58;1142816;-72
2024/03/03 03:11:09;;;;;;;75.57;43.27;;;;;;;7.81;100.00;100037.83;4971979;58;1142796;-73
2024/03/03 03:16:14;;;;;;;80.80;44.50;;;;;;;7.85;100.00;100038.81;4971235;58;1142712;-73
2024/03/03 03:21:21;;;;;;;74.67;42.47;;;;;;;7.88;100.00;100033.81;4971341;58;1142909;-75
2024/03/03 03:26:26;;;;;;;87.53;43.80;;;;;;;7.88;100.00;100025.44;4990795;58;1143031;-73
2024/03/03 03:31:32;;;;;;;88.30;43.70;;;;;;;7.87;100.00;100019.80;4958376;58;1142998;-72
2024/03/03 03:36:38;;;;;;;90.60;49.23;;;;;;;7.83;100.00;100022.29;4892939;58;1143136;-73
2024/03/03 03:41:48;;;;;;;91.30;45.10;;;;;;;7.78;100.00;100023.13;4891919;59;1143393;-75
2024/03/03 03:46:54;;;;;;;82.97;43.00;;;;;;;7.71;100.00;100025.83;4910345;58;1142885;-74
2024/03/03 03:52:03;;;;;;;77.30;43.17;;;;;;;7.65;100.00;100023.64;4915642;58;1142796;-74
2024/03/03 03:57:07;;;;;;;78.40;42.47;;;;;;;7.64;100.00;100020.64;4908908;58;1142818;-72
2024/03/03 04:02:12;;;;;;;86.47;45.80;;;;;;;7.65;100.00;100018.38;4958055;58;1142981;-73
2024/03/03 04:07:18;;;;;;;75.50;42.10;;;;;;;7.59;100.00;100025.42;4954443;58;1143345;-73
2024/03/03 04:12:23;;;;;;;82.75;46.05;;;;;;;7.54;100.00;100024.44;4944659;58;1143058;-72
2024/03/03 04:17:29;;;;;;;82.37;44.07;;;;;;;7.51;100.00;100027.28;4910422;58;1143117;-75
2024/03/03 04:22:35;;;;;;;80.60;40.90;;;;;;;7.51;100.00;100027.28;4957864;58;1143067;-74
2024/03/03 04:27:41;;;;;;;71.90;40.23;;;;;;;7.50;100.00;100019.50;4971089;58;1142754;-75
2024/03/03 04:32:47;;;;;;;72.38;40.38;;;;;;;7.51;100.00;100022.02;4971295;57;1142980;-75
2024/03/03 04:37:52;;;;;;;72.03;41.30;;;;;;;7.53;100.00;100028.48;4990608;58;1142975;-74
2024/03/03 04:42:58;;;;;;;72.03;40.53;;;;;;;7.53;100.00;100025.38;4970774;58;1143396;-75
2024/03/03 04:48:03;;;;;;;77.77;42.73;;;;;;;7.52;100.00;100009.23;4910020;58;1142736;-73
2024/03/03 04:53:09;;;;;;;70.93;41.40;;;;;;;7.49;100.00;100015.19;4910968;58;1142737;-74
2024/03/03 04:58:14;;;;;;;69.90;38.93;;;;;;;7.45;100.00;100008.48;4891420;57;1143331;-72
2024/03/03 05:03:20;;;;;;;67.40;38.57;;;;;;;7.41;100.00;100013.13;4959107;58;1142681;-71
2024/03/03 05:08:26;;;;;;;76.53;38.60;;;;;;;7.36;100.00;100008.19;4990462;58;1143154;-72
2024/03/03 05:13:31;;;;;;;76.47;39.70;;;;;;;7.35;100.00;100010.45;4905211;58;1142736;-75
2024/03/03 05:18:37;;;;;;;66.40;38.13;;;;;;;7.35;100.00;100011.77;4891631;58;1142789;-74
2024/03/03 05:23:42;;;;;;;66.53;38.73;;;;;;;7.37;100.00;100017.77;4891551;58;1142937;-74
2024/03/03 05:28:49;;;;;;;73.00;39.26;;;;;;;7.36;100.00;100009.98;4910902;58;1142854;-76
2024/03/03 05:33:54;;;;;;;72.87;39.07;;;;;;;7.32;100.00;100012.02;4892278;57;1142966;-72
2024/03/03 05:39:00;;;;;;;61.73;37.25;;;;;;;7.28;100.00;100005.77;4927068;58;1143138;-74
2024/03/03 05:44:07;;;;;;;61.87;35.97;;;;;;;7.27;100.00;100014.60;4932414;58;1143182;-74
2024/03/03 05:49:12;;;;;;;63.03;35.83;;;;;;;7.30;100.00;100025.75;4891147;59;1142831;-75
2024/03/03 05:54:18;;;;;;;78.03;38.20;;;;;;;7.32;100.00;100018.59;4891224;59;1142851;-74
2024/03/03 05:59:23;;;;;;;69.40;37.60;;;;;;;7.31;100.00;100014.28;4927376;58;1143007;-75
2024/03/03 06:04:29;;;;;;;72.77;38.90;;;;;;;7.28;100.00;100022.38;4932691;58;1142929;-72
2024/03/03 06:09:35;;;;;;;71.60;36.83;;;;;;;7.25;100.00;100017.81;4940011;58;1142903;-74
2024/03/03 06:14:47;;;;;;;72.36;37.00;;;;;;;7.28;100.00;100031.59;4910121;58;1142783;-73
2024/03/03 06:19:50;;;;;;;72.55;39.90;;;;;;;7.29;100.00;100028.02;4911344;58;1143020;-74
2024/03/03 06:24:55;;;;;;;77.67;41.47;;;;;;;7.28;100.00;100020.23;4893944;58;1142894;-72
2024/03/03 06:30:03;;;;;;;72.77;40.37;;;;;;;7.27;100.00;100027.28;4864766;59;1142934;-74
2024/03/03 06:35:13;;;;;;;66.43;38.20;;;;;;;7.31;100.00;100029.22;4891768;59;1142893;-72
2024/03/03 06:40:19;;;;;;;70.43;36.17;;;;;;;7.36;100.00;100034.49;4874340;58;1142949;-71
2024/03/03 06:45:25;;;;;;;70.60;37.57;;;;;;;7.41;100.00;100028.44;4861137;59;1142918;-73
2024/03/03 06:50:30;;;;;;;76.73;41.63;;;;;;;7.37;100.00;100030.08;4902503;59;1142940;-73
2024/03/03 06:55:38;;;;;;;66.13;37.80;;;;;;;7.37;100.00;100030.08;4883866;59;1149680;-72
2024/03/03 07:00:43;;;;;;;71.80;39.20;;;;;;;7.41;100.00;100034.17;4872370;59;1143147;-73
2024/03/03 07:05:49;;;;;;;66.93;39.17;;;;;;;7.44;100.00;100027.85;4803160;58;1143089;-74
2024/03/03 07:10:54;;;;;;;66.40;38.38;;;;;;;7.46;100.00;100033.85;4831425;58;1142983;-72
2024/03/03 07:16:00;;;;;;;78.47;41.97;;;;;;;7.51;100.00;100032.55;4807700;59;1142932;-72
2024/03/03 07:21:06;;;;;;;74.87;40.87;;;;;;;7.56;100.00;100033.06;4784394;58;1143148;-73
2024/03/03 07:26:11;;;;;;;66.47;35.03;;;;;;;7.65;100.00;100025.80;4864122;59;1142881;-72
2024/03/03 07:31:17;;;;;;;65.37;38.53;;;;;;;7.78;100.00;100032.81;4939788;58;1142794;-73
2024/03/03 07:36:23;;;;;;;74.70;40.70;;;;;;;7.85;100.00;100024.81;4855019;59;1143077;-73
2024/03/03 07:41:29;;;;;;;68.03;37.53;;;;;;;7.93;100.00;100020.67;4953873;58;1142992;-73
2024/03/03 07:46:36;;;;;;;69.97;37.73;;;;;;;8.00;100.00;100025.83;4981476;58;1143216;-73
2024/03/03 07:51:41;;;;;;;69.60;39.40;;;;;;;8.07;100.00;100025.75;4988047;57;1143122;-73
2024/03/03 07:56:47;;;;;;;76.52;39.38;;;;;;;8.25;100.00;100031.91;5053578;57;1142882;-75
2024/03/03 08:01:53;;;;;;;80.67;41.95;;;;;;;8.42;100.00;100027.03;5022020;57;1143011;-73
2024/03/03 08:06:58;;;;;;;67.50;39.23;;;;;;;8.58;100.00;100031.13;4871902;59;1143129;-73
2024/03/03 08:12:04;;;;;;;80.93;42.67;;;;;;;8.65;100.00;100037.14;4927688;58;1142965;-75
2024/03/03 08:17:10;;;;;;;73.37;37.40;;;;;;;8.84;100.00;100043.63;4954634;58;1142965;-72
2024/03/03 08:22:15;;;;;;;79.53;41.90;;;;;;;9.01;100.00;100048.44;4969907;58;1142802;-72
2024/03/03 08:27:21;;;;;;;77.07;42.03;;;;;;;9.18;100.00;100042.64;4965706;58;1142748;-73
2024/03/03 08:32:27;;;;;;;83.50;44.10;;;;;;;9.28;100.00;100050.20;4967303;58;1143007;-72
2024/03/03 08:37:34;;;;;;;82.40;43.53;;;;;;;9.32;100.00;100049.48;4813505;59;1142916;-75
2024/03/03 08:42:40;;;;;;;139.63;62.37;;;;;;;9.47;100.00;100048.26;4889268;59;1142874;-75
2024/03/03 08:47:46;;;;;;;127.47;57.67;;;;;;;9.68;100.00;100046.98;4889526;59;1145052;-73
2024/03/03 08:52:52;;;;;;;72.70;41.50;;;;;;;9.84;100.00;100040.80;4908800;59;1144889;-72
2024/03/03 08:57:57;;;;;;;76.77;40.93;;;;;;;10.04;100.00;100031.24;4889539;59;1142700;-71
2024/03/03 09:03:03;;;;;;;62.90;38.07;;;;;;;10.32;100.00;100031.13;4922408;58;1145152;-74
2024/03/03 09:08:09;;;;;;;65.13;35.27;;;;;;;10.51;100.00;100028.60;4945720;58;1145163;-72
2024/03/03 09:13:14;;;;;;;67.93;39.37;;;;;;;10.74;100.00;100019.52;4928451;58;1144935;-73
2024/03/03 09:18:20;;;;;;;65.57;37.40;;;;;;;10.97;100.00;100031.27;4922794;57;1144954;-72
2024/03/03 09:23:25;;;;;;;57.00;33.37;;;;;;;11.12;100.00;100024.63;4896556;59;1144901;-75
2024/03/03 09:28:31;;;;;;;57.50;33.87;;;;;;;11.33;100.00;100029.34;4893513;58;1144967;-73
2024/03/03 09:33:38;;;;;;;69.07;35.90;;;;;;;11.47;100.00;100021.49;4930984;58;1145110;-70
2024/03/03 09:38:44;;;;;;;57.87;32.70;;;;;;;11.53;100.00;100020.95;4941812;58;1145003;-72
2024/03/03 09:43:54;;;;;;;63.57;32.17;;;;;;;11.66;100.00;100022.02;4921138;58;1145414;-73
2024/03/03 09:49:00;;;;;;;55.40;33.27;;;;;;;11.76;100.00;100034.83;4923877;58;1145117;-70
2024/03/03 09:54:08;;;;;;;58.07;34.03;;;;;;;11.93;100.00;100034.11;4962105;58;1145053;-72
2024/03/03 09:59:15;;;;;;;57.33;32.03;;;;;;;12.04;100.00;100035.81;4909076;58;1144983;-74
2024/03/03 10:04:21;;;;;;;51.00;30.63;;;;;;;12.21;100.00;100029.31;4885352;58;1144868;-75
2024/03/03 10:09:29;;;;;;;53.77;29.23;;;;;;;12.37;100.00;100031.38;4891125;59;1144803;-74
2024/03/03 10:14:36;;;;;;;53.00;30.07;;;;;;;12.44;100.00;100022.35;4910548;59;1145064;-76
2024/03/03 10:19:43;;;;;;;53.50;27.27;;;;;;;12.46;100.00;100021.23;4890964;58;1266141;-71
2024/03/03 10:24:48;;;;;;;45.33;26.03;;;;;;;12.43;100.00;100011.39;4949379;59;1145048;-75
2024/03/03 10:30:04;;;;;;;48.78;25.40;;;;;;;12.40;100.00;100013.00;4889101;59;1144768;-74
2024/03/03 10:35:14;;;;;;;44.23;25.50;;;;;;;12.32;100.00;100013.73;4988918;58;1144903;-72
2024/03/03 10:40:24;;;;;;;38.95;24.37;;;;;;;12.32;100.00;100004.45;4988847;58;1144852;-72
2024/03/03 10:45:31;;;;;;;37.10;22.43;;;;;;;12.48;100.00;100000.71;4908548;59;1144749;-73
2024/03/03 10:50:38;;;;;;;35.60;21.37;;;;;;;12.71;100.00;100004.33;4985820;58;1145063;-75
2024/03/03 10:55:45;;;;;;;44.63;27.53;;;;;;;12.82;100.00;99997.05;4855102;58;1145234;-72
2024/03/03 11:00:52;;;;;;;39.00;24.70;;;;;;;12.98;100.00;99984.47;4976889;58;1142679;-72
2024/03/03 11:06:00;;;;;;;45.53;24.73;;;;;;;13.17;100.00;99983.05;5059413;58;1142435;-74
2024/03/03 11:11:13;;;;;;;38.63;24.60;;;;;;;13.42;100.00;99978.86;4942651;58;1142662;-70
2024/03/03 11:16:20;;;;;;;42.90;28.47;;;;;;;13.48;100.00;99978.73;4924263;58;1142563;-75
2024/03/03 11:21:29;;;;;;;38.28;23.83;;;;;;;13.57;100.00;99975.19;5042565;57;1142959;-74
2024/03/03 11:26:46;;;;;;;47.60;23.97;;;;;;;13.70;100.00;99965.00;5050309;57;1142656;-75
2024/03/03 11:31:52;;;;;;;37.03;22.50;;;;;;;13.85;100.00;99962.15;5053302;57;1143472;-72
2024/03/03 11:36:59;;;;;;;41.57;24.97;;;;;;;13.96;100.00;99953.92;4975156;57;1143301;-70
2024/03/03 11:42:24;;;;;;;42.00;26.13;;;;;;;13.98;100.00;99952.44;4923098;58;1143314;-71
2024/03/03 11:47:46;;;;;;;41.63;24.83;;;;;;;14.15;100.00;99944.09;4884662;58;1142956;-71
2024/03/03 11:52:51;;;;;;;42.07;23.97;;;;;;;14.11;100.00;99935.58;4905495;58;1142963;-76
2024/03/03 11:58:01;;;;;;;50.40;30.87;;;;;;;14.00;100.00;99932.69;4892775;58;1143009;-72
2024/03/03 12:03:09;;;;;;;43.93;26.33;;;;;;;13.99;100.00;99930.19;4932727;58;1143068;-72
2024/03/03 12:08:19;;;;;;;25.60;17.75;;;;;;;13.96;100.00;99915.86;4958471;58;1143037;-73
2024/03/03 12:13:24;;;;;;;27.43;16.43;;;;;;;14.08;100.00;99899.98;4941868;58;1142963;-73
2024/03/03 12:18:30;;;;;;;36.07;17.27;;;;;;;14.21;100.00;99900.89;4906592;58;1142889;-73
2024/03/03 12:23:36;;;;;;;29.80;16.80;;;;;;;14.24;100.00;99897.43;4879347;59;1143012;-72
2024/03/03 12:28:42;;;;;;;26.90;18.47;;;;;;;14.32;100.00;99890.84;4879175;59;1142834;-74
2024/03/03 12:33:49;;;;;;;23.45;15.88;;;;;;;14.48;100.00;99892.78;4879312;59;1143434;-73
2024/03/03 12:38:54;;;;;;;25.40;15.20;;;;;;;14.63;100.00;99897.84;4898350;58;1143053;-71
2024/03/03 12:44:00;;;;;;;24.23;16.33;;;;;;;14.67;100.00;99890.34;4926576;58;1143023;-74
2024/03/03 12:49:05;;;;;;;25.20;16.00;;;;;;;14.59;100.00;99898.31;4923327;58;1142972;-73
2024/03/03 12:54:11;;;;;;;22.23;15.70;;;;;;;14.47;100.00;99884.46;4951697;58;1143169;-74
2024/03/03 12:59:17;;;;;;;27.13;16.57;;;;;;;14.45;100.00;99884.28;4956078;58;1142811;-76
2024/03/03 13:04:23;;;;;;;26.62;13.88;;;;;;;14.38;100.00;99884.88;4958349;58;1143191;-74
2024/03/03 13:09:29;;;;;;;31.42;18.02;;;;;;;14.36;100.00;99886.84;4915711;58;1142679;-73
2024/03/03 13:14:35;;;;;;;33.20;21.33;;;;;;;14.37;100.00;99888.52;4906827;58;1142666;-72
2024/03/03 13:19:46;;;;;;;28.67;18.53;;;;;;;14.34;100.00;99883.55;4949420;58;1142953;-73
2024/03/03 13:25:02;;;;;;;32.67;18.93;;;;;;;14.30;100.00;99884.01;4890611;58;1142883;-73
2024/03/03 13:30:13;;;;;;;28.57;19.13;;;;;;;14.42;100.00;99888.92;4911857;57;1142784;-69
2024/03/03 13:35:19;;;;;;;100.40;73.60;;;;;;;14.59;100.00;99885.00;4910699;59;1142812;-74
2024/03/03 13:40:24;;;;;;;36.73;24.70;;;;;;;14.73;100.00;99872.41;5015456;58;1145328;-74
2024/03/03 13:45:31;;;;;;;33.43;21.87;;;;;;;14.73;100.00;99881.73;4955388;58;1142996;-72
2024/03/03 13:50:39;;;;;;;33.20;20.40;;;;;;;14.64;100.00;99873.39;4917775;58;1142714;-72
2024/03/03 13:55:45;;;;;;;28.77;19.10;;;;;;;14.57;100.00;99869.69;4959548;58;1142892;-74
2024/03/03 14:00:55;;;;;;;30.65;18.95;;;;;;;14.48;100.00;99882.64;4931116;58;1143232;-73
2024/03/03 14:06:00;;;;;;;36.80;24.30;;;;;;;14.36;100.00;99871.42;4984523;58;1143118;-71
2024/03/03 14:11:05;;;;;;;32.10;19.73;;;;;;;14.25;100.00;99871.67;4944833;57;1143077;-74
2024/03/03 14:16:10;;;;;;;32.90;21.40;;;;;;;14.23;100.00;99874.98;4978514;57;1142961;-71
2024/03/03 14:21:14;;;;;;;29.47;20.33;;;;;;;14.18;100.00;99872.81;5018249;57;1142965;-73
2024/03/03 14:26:21;;;;;;;35.70;22.63;;;;;;;14.16;100.00;99877.95;5004925;57;1142825;-74
2024/03/03 14:31:27;;;;;;;32.83;19.23;;;;;;;14.12;100.00;99879.25;5022659;57;1143032;-75
2024/03/03 14:36:32;;;;;;;34.40;22.67;;;;;;;14.04;100.00;99876.89;5022809;57;1147266;-73
2024/03/03 14:41:36;;;;;;;29.57;20.75;;;;;;;13.99;100.00;99867.21;4951283;57;1143344;-73
2024/03/03 14:46:42;;;;;;;34.47;22.63;;;;;;;13.96;100.00;99868.84;4932998;57;1143178;-74
2024/03/03 14:51:46;;;;;;;35.35;23.92;;;;;;;13.95;100.00;99865.84;4864295;58;1143234;-74
2024/03/03 14:56:51;;;;;;;34.57;22.53;;;;;;;13.94;100.00;99872.16;4931522;58;1142653;-75
2024/03/03 15:01:56;;;;;;;26.77;18.00;;;;;;;13.92;100.00;99873.30;4934497;57;1143033;-74
2024/03/03 15:07:01;;;;;;;42.07;23.13;;;;;;;13.87;100.00;99872.45;4934923;58;1143203;-72
2024/03/03 15:12:07;;;;;;;27.47;19.60;;;;;;;13.84;100.00;99871.43;4929361;58;1143228;-70
2024/03/03 15:17:21;;;;;;;36.00;23.77;;;;;;;13.82;100.00;99876.56;4865695;58;1142783;-73
2024/03/03 15:22:27;;;;;;;40.33;21.10;;;;;;;13.79;100.00;99874.20;4912369;57;1142852;-72
2024/03/03 15:27:32;;;;;;;37.33;19.70;;;;;;;13.73;100.00;99871.20;4954389;58;1143056;-74
2024/03/03 15:32:37;;;;;;;24.70;15.83;;;;;;;13.71;100.00;99874.99;4934698;57;1142822;-72
2024/03/03 15:37:42;;;;;;;28.67;18.85;;;;;;;13.71;100.00;99874.99;4952911;58;1142957;-72
2024/03/03 15:42:46;;;;;;;32.50;18.15;;;;;;;13.69;100.00;99879.13;4934895;57;1143132;-73
2024/03/03 15:47:52;;;;;;;30.73;17.73;;;;;;;13.61;100.00;99876.39;4960383;57;1142870;-75
2024/03/03 15:52:56;;;;;;;37.07;19.30;;;;;;;13.53;100.00;99875.02;4934546;57;1143428;-75
2024/03/03 15:58:02;;;;;;;36.77;23.30;;;;;;;13.45;100.00;99872.77;4944565;57;1143063;-74
2024/03/03 16:03:07;;;;;;;31.27;19.23;;;;;;;13.41;100.00;99878.91;4963658;57;1142849;-74
2024/03/03 16:08:15;;;;;;;46.33;27.57;;;;;;;13.38;100.00;99872.56;4944360;57;1142978;-75
2024/03/03 16:13:21;;;;;;;36.27;22.93;;;;;;;13.32;100.00;99877.98;4944428;57;1142683;-74
2024/03/03 16:18:26;;;;;;;38.77;23.23;;;;;;;13.23;100.00;99877.58;4964127;57;1143031;-74
2024/03/03 16:23:33;;;;;;;41.00;21.97;;;;;;;13.13;100.00;99879.45;4936283;57;1142915;-74
2024/03/03 16:28:38;;;;;;;35.33;22.60;;;;;;;13.03;100.00;99883.47;4874833;58;1143158;-76
2024/03/03 16:33:45;;;;;;;57.88;32.65;;;;;;;12.91;100.00;99887.33;4937234;57;1143124;-74
2024/03/03 16:38:51;;;;;;;221.93;132.32;;;;;;;12.82;100.00;99886.08;4928900;57;1142830;-71
2024/03/03 16:43:56;;;;;;;47.43;27.53;;;;;;;12.74;100.00;99890.78;4932298;57;1147225;-74
2024/03/03 16:49:02;;;;;;;45.97;26.90;;;;;;;12.71;100.00;99887.58;4936022;57;1143149;-71
2024/03/03 16:54:08;;;;;;;54.93;29.07;;;;;;;12.60;100.00;99893.44;4962978;57;1144326;-77
2024/03/03 16:59:14;;;;;;;44.33;27.10;;;;;;;12.50;100.00;99899.29;4898688;57;1143007;-70
2024/03/03 17:04:20;;;;;;;56.40;32.20;;;;;;;12.41;100.00;99901.47;4934306;57;1143169;-71
2024/03/03 17:09:25;;;;;;;57.80;33.53;;;;;;;12.30;100.00;99902.50;4932012;57;1142904;-75
2024/03/03 17:14:31;;;;;;;59.97;35.40;;;;;;;12.20;100.00;99904.84;4901680;57;1142899;-75
2024/03/03 17:19:36;;;;;;;51.40;30.17;;;;;;;12.11;100.00;99911.00;4904083;58;1142805;-72
2024/03/03 17:24:42;;;;;;;53.15;31.07;;;;;;;12.02;100.00;99912.70;4886755;58;1142789;-71
2024/03/03 17:29:51;;;;;;;61.35;31.70;;;;;;;11.94;100.00;99917.37;4909772;58;1142778;-75
2024/03/03 17:34:56;;;;;;;55.40;30.82;;;;;;;11.84;100.00;99921.86;4921899;58;1142974;-73
2024/03/03 17:40:04;;;;;;;68.03;36.90;;;;;;;11.75;100.00;99925.83;4928990;57;1142808;-76
2024/03/03 17:45:13;;;;;;;51.90;32.87;;;;;;;11.68;100.00;99927.36;4912004;57;1142809;-75
2024/03/03 17:50:18;;;;;;;46.63;27.07;;;;;;;11.59;100.00;99929.05;4936603;58;1143008;-73
2024/03/03 17:55:25;;;;;;;52.80;30.20;;;;;;;11.53;100.00;99928.27;4909861;58;1143030;-72
2024/03/03 18:00:31;;;;;;;47.13;27.87;;;;;;;11.47;100.00;99940.72;4898118;58;1143735;-74
2024/03/03 18:05:39;;;;;;;49.73;27.53;;;;;;;11.39;100.00;99933.49;4876735;58;1142947;-71
2024/03/03 18:10:45;;;;;;;50.70;28.62;;;;;;;11.34;100.00;99935.70;4885948;57;1142875;-71
2024/03/03 18:15:51;;;;;;;50.08;27.22;;;;;;;11.25;100.00;99930.77;4950201;58;1142853;-74
2024/03/03 18:20:57;;;;;;;47.73;28.83;;;;;;;11.18;100.00;99937.56;4972375;57;1142896;-71
2024/03/03 18:26:05;;;;;;;56.27;29.77;;;;;;;11.10;100.00;99941.88;5005747;57;1142755;-72
2024/03/03 18:31:11;;;;;;;49.43;29.20;;;;;;;11.05;100.00;99938.80;5041836;57;1142836;-72
2024/03/03 18:36:18;;;;;;;46.20;26.70;;;;;;;10.99;100.00;99939.36;4942374;58;1143080;-72
2024/03/03 18:41:25;;;;;;;53.08;30.62;;;;;;;10.93;100.00;99945.53;4942147;58;1143106;-74
2024/03/03 18:46:31;;;;;;;48.37;29.30;;;;;;;10.86;100.00;99940.42;5029619;57;1142886;-74
2024/03/03 18:51:37;;;;;;;56.80;29.73;;;;;;;10.82;100.00;99940.84;5013821;57;1142615;-72
2024/03/03 18:56:43;;;;;;;57.23;31.10;;;;;;;10.78;100.00;99942.08;5031775;57;1142944;-74
2024/03/03 19:01:54;;;;;;;52.67;32.30;;;;;;;10.73;100.00;99943.79;4977249;57;1143008;-74
2024/03/03 19:06:58;;;;;;;53.60;31.77;;;;;;;10.69;100.00;99951.66;4829769;59;1142717;-74
2024/03/03 19:12:03;;;;;;;61.68;35.98;;;;;;;10.62;100.00;99946.54;4914427;59;1142895;-71
2024/03/03 19:17:09;;;;;;;63.30;33.13;;;;;;;10.58;100.00;99949.09;4910015;59;1142657;-74
2024/03/03 19:22:15;;;;;;;67.57;34.97;;;;;;;10.55;100.00;99949.34;4908738;59;1143146;-71
2024/03/03 19:27:21;;;;;;;57.63;31.20;;;;;;;10.52;100.00;99945.19;4936559;58;1142681;-72
2024/03/03 19:32:27;;;;;;;52.40;29.80;;;;;;;10.50;100.00;99955.54;4922957;58;1143762;-71
2024/03/03 19:37:34;;;;;;;57.57;30.53;;;;;;;10.48;100.00;99958.31;4929835;57;1256308;-71
2024/03/03 19:42:40;;;;;;;57.60;32.35;;;;;;;10.39;100.00;99955.13;4993249;58;1142802;-70
2024/03/03 19:47:46;;;;;;;51.87;30.53;;;;;;;10.32;100.00;99953.15;4885022;58;1236314;-71
2024/03/03 19:52:53;;;;;;;59.80;30.67;;;;;;;10.28;100.00;99953.05;4890771;58;1257797;-72
2024/03/03 19:58:01;;;;;;;59.95;32.63;;;;;;;10.24;100.00;99956.43;4912083;58;1142903;-73
2024/03/03 20:03:07;;;;;;;55.67;31.73;;;;;;;10.17;100.00;99957.42;4942797;57;1247196;-73
2024/03/03 20:08:13;;;;;;;52.37;31.37;;;;;;;10.08;100.00;99952.89;4906655;57;1186412;-73
2024/03/03 20:13:25;;;;;;;55.27;30.20;;;;;;;10.04;100.00;99959.42;4946115;57;1143136;-72
2024/03/03 20:18:29;;;;;;;56.67;32.23;;;;;;;10.03;100.00;99956.43;4967950;57;1143258;-74
2024/03/03 20:23:35;;;;;;;62.47;34.27;;;;;;;10.02;100.00;99959.20;5035685;57;1142949;-77
2024/03/03 20:28:41;;;;;;;52.23;28.53;;;;;;;9.97;100.00;99953.45;5037390;57;1142730;-73
2024/03/03 20:33:48;;;;;;;51.27;28.67;;;;;;;9.95;100.00;99954.06;5042597;57;1140697;-75
2024/03/03 20:38:55;;;;;;;54.60;31.50;;;;;;;9.91;100.00;99952.19;5033396;57;1140733;-71
2024/03/03 20:44:00;;;;;;;59.67;33.67;;;;;;;9.87;100.00;99954.72;4955870;57;1141014;-73
2024/03/03 20:49:06;;;;;;;53.17;31.13;;;;;;;9.79;100.00;99954.02;4878282;58;1140950;-73
2024/03/03 20:54:13;;;;;;;58.53;30.13;;;;;;;9.75;100.00;99944.70;4888137;58;1141106;-70
2024/03/03 20:59:19;;;;;;;55.50;31.83;;;;;;;9.75;100.00;99943.86;4903587;58;1140838;-73
2024/03/03 21:04:25;;;;;;;60.50;32.20;;;;;;;9.69;100.00;99951.80;4957908;58;1140945;-74
2024/03/03 21:09:31;;;;;;;56.27;29.10;;;;;;;9.66;100.00;99952.53;4897973;58;1140771;-73
2024/03/03 21:14:36;;;;;;;54.77;31.73;;;;;;;9.60;100.00;99955.21;4898812;58;1140971;-74
2024/03/03 21:19:42;;;;;;;53.63;29.67;;;;;;;9.58;100.00;99958.94;4915598;58;1140617;-70
2024/03/03 21:24:48;;;;;;;50.27;29.60;;;;;;;9.55;100.00;99958.70;4958345;58;1140887;-71
2024/03/03 21:29:53;;;;;;;44.47;26.33;;;;;;;9.49;100.00;99966.63;4959541;58;1141052;-72
2024/03/03 21:34:59;;;;;;;49.18;26.68;;;;;;;9.46;100.00;99962.95;4961789;58;1140898;-74
2024/03/03 21:40:07;;;;;;;59.27;28.53;;;;;;;9.45;100.00;99964.39;5049638;57;1140866;-75
2024/03/03 21:45:12;;;;;;;50.90;27.53;;;;;;;9.33;100.00;99966.69;5052552;57;1141007;-73
2024/03/03 21:50:18;;;;;;;45.50;25.77;;;;;;;9.25;100.00;99968.64;5032554;57;1140511;-70
2024/03/03 21:55:24;;;;;;;41.60;24.57;;;;;;;9.22;100.00;99968.88;5020677;57;1140528;-74
2024/03/03 22:00:29;;;;;;;41.43;24.43;;;;;;;9.21;100.00;99966.36;4988961;57;1141018;-72
2024/03/03 22:05:35;;;;;;;45.55;25.57;;;;;;;9.10;100.00;99968.08;4949824;58;1140738;-74
2024/03/03 22:10:40;;;;;;;47.27;24.67;;;;;;;9.04;100.00;99970.35;4879477;59;1140829;-74
2024/03/03 22:15:46;;;;;;;45.93;25.70;;;;;;;8.95;100.00;99969.30;4911924;58;1140848;-74
2024/03/03 22:20:52;;;;;;;42.05;23.80;;;;;;;8.89;100.00;99966.30;4946628;58;1140972;-70
2024/03/03 22:25:57;;;;;;;43.30;25.43;;;;;;;8.86;100.00;99971.84;4898811;59;1141107;-74
2024/03/03 22:31:03;;;;;;;41.55;24.15;;;;;;;8.81;100.00;99965.60;4902335;58;1140736;-71
2024/03/03 22:36:09;;;;;;;42.40;23.40;;;;;;;8.76;100.00;99964.64;4997558;57;1140726;-76
2024/03/03 22:41:14;;;;;;;45.10;24.53;;;;;;;8.69;100.00;99971.84;5040161;57;1140746;-76